createdAt,value
2022-07-27T00:00:25.455Z,98883.32
2022-07-27T00:01:09.571Z,98877.98
2022-07-27T00:01:50.818Z,98884.86
2022-07-27T00:02:24.777Z,98877.45
2022-07-27T00:02:57.876Z,98881.30
2022-07-27T00:03:30.971Z,98881.63
2022-07-27T00:04:04.211Z,98883.69
2022-07-27T00:04:37.439Z,98884.23
2022-07-27T00:05:11.674Z,98883.89
2022-07-27T00:05:45.121Z,98882.77
2022-07-27T00:06:18.341Z,98884.16
2022-07-27T00:06:51.786Z,98884.85
2022-07-27T00:07:24.888Z,98886.73
2022-07-27T00:07:58.052Z,98887.21
2022-07-27T00:08:31.244Z,98885.41
2022-07-27T00:09:04.696Z,98885.22
2022-07-27T00:09:37.818Z,98889.02
2022-07-27T00:10:10.999Z,98890.61
2022-07-27T00:10:44.086Z,98889.48
2022-07-27T00:11:17.279Z,98887.04
2022-07-27T00:11:50.749Z,98887.77
2022-07-27T00:12:23.800Z,98886.77
2022-07-27T00:12:57.297Z,98887.56
2022-07-27T00:13:30.531Z,98886.83
2022-07-27T00:14:03.836Z,98886.35
2022-07-27T00:14:37.731Z,98887.14
2022-07-27T00:15:11.712Z,98889.38
2022-07-27T00:15:44.933Z,98891.02
2022-07-27T00:16:18.165Z,98889.42
2022-07-27T00:16:51.549Z,98885.80
2022-07-27T00:17:25.974Z,98889.64
2022-07-27T00:18:01.335Z,98886.33
2022-07-27T00:18:34.665Z,98890.20
2022-07-27T00:19:09.405Z,98889.40
2022-07-27T00:19:42.836Z,98887.73
2022-07-27T00:20:16.103Z,98887.94
2022-07-27T00:20:49.242Z,98887.20
2022-07-27T00:21:22.382Z,98887.69
2022-07-27T00:21:55.584Z,98883.48
2022-07-27T00:22:28.824Z,98883.52
2022-07-27T00:23:02.526Z,98884.55
2022-07-27T00:23:35.750Z,98879.90
2022-07-27T00:24:09.073Z,98885.46
2022-07-27T00:24:42.419Z,98887.15
2022-07-27T00:25:16.448Z,98880.01
2022-07-27T00:25:50.096Z,98885.39
2022-07-27T00:26:23.186Z,98885.17
2022-07-27T00:26:56.369Z,98885.17
2022-07-27T00:27:29.495Z,98884.27
2022-07-27T00:28:03.208Z,98887.46
2022-07-27T00:28:36.325Z,98888.52
2022-07-27T00:29:09.758Z,98887.98
2022-07-27T00:29:43.465Z,98887.52
2022-07-27T00:30:17.046Z,98891.17
2022-07-27T00:30:50.378Z,98888.92
2022-07-27T00:31:23.608Z,98890.73
2022-07-27T00:31:56.913Z,98891.86
2022-07-27T00:32:32.733Z,98893.23
2022-07-27T00:33:06.334Z,98891.21
2022-07-27T00:33:39.519Z,98894.49
2022-07-27T00:34:12.585Z,98892.96
2022-07-27T00:34:45.715Z,98895.52
2022-07-27T00:35:19.451Z,98892.37
2022-07-27T00:35:52.549Z,98893.37
2022-07-27T00:36:25.750Z,98894.48
2022-07-27T00:36:59.311Z,98890.11
2022-07-27T00:37:32.351Z,98893.14
2022-07-27T00:38:05.476Z,98894.95
2022-07-27T00:38:39.028Z,98897.71
2022-07-27T00:39:12.531Z,98895.59
2022-07-27T00:39:46.171Z,98894.16
2022-07-27T00:40:19.332Z,98896.44
2022-07-27T00:40:52.372Z,98895.84
2022-07-27T00:41:25.577Z,98896.67
2022-07-27T00:41:59.173Z,98895.65
2022-07-27T00:42:32.476Z,98899.16
2022-07-27T00:43:05.607Z,98895.06
2022-07-27T00:43:59.835Z,98898.47
2022-07-27T00:44:33.319Z,98895.30
2022-07-27T00:45:07.035Z,98898.00
2022-07-27T00:45:40.146Z,98896.03
2022-07-27T00:46:13.479Z,98894.46
2022-07-27T00:46:46.655Z,98898.40
2022-07-27T00:47:19.878Z,98897.01
2022-07-27T00:47:55.074Z,98898.23
2022-07-27T00:48:29.378Z,98899.83
2022-07-27T00:49:02.896Z,98898.34
2022-07-27T00:49:36.130Z,98898.16
2022-07-27T00:50:09.961Z,98896.13
2022-07-27T00:50:44.048Z,98898.29
2022-07-27T00:51:20.826Z,98896.95
2022-07-27T00:51:55.465Z,98894.70
2022-07-27T00:52:30.297Z,98892.41
2022-07-27T00:53:05.258Z,98892.02
2022-07-27T00:53:38.898Z,98891.55
2022-07-27T00:54:12.475Z,98895.30
2022-07-27T00:54:45.981Z,98892.69
2022-07-27T00:55:19.856Z,98895.99
2022-07-27T00:55:53.712Z,98893.38
2022-07-27T00:56:26.714Z,98892.95
2022-07-27T00:56:59.837Z,98895.41
2022-07-27T00:57:33.615Z,98894.34
2022-07-27T00:58:27.814Z,98893.30
2022-07-27T00:59:01.041Z,98891.24
2022-07-27T00:59:34.151Z,98897.05
2022-07-27T01:00:08.632Z,98893.55
2022-07-27T01:00:41.806Z,98893.84
2022-07-27T01:01:15.838Z,98895.05
2022-07-27T01:01:49.284Z,98889.23
2022-07-27T01:02:23.617Z,98892.48
2022-07-27T01:02:57.378Z,98896.25
2022-07-27T01:03:31.312Z,98896.21
2022-07-27T01:04:05.339Z,98897.00
2022-07-27T01:04:38.560Z,98896.10
2022-07-27T01:05:12.857Z,98895.91
2022-07-27T01:05:47.578Z,98897.30
2022-07-27T01:06:27.053Z,98895.44
2022-07-27T01:07:02.907Z,98894.55
2022-07-27T01:07:36.056Z,98897.26
2022-07-27T01:08:12.416Z,98895.27
2022-07-27T01:08:45.885Z,98895.32
2022-07-27T01:09:37.599Z,98891.94
2022-07-27T01:10:10.752Z,98891.39
2022-07-27T01:10:44.890Z,98896.80
2022-07-27T01:11:18.087Z,98894.52
2022-07-27T01:11:51.150Z,98892.42
2022-07-27T01:12:29.772Z,98889.98
2022-07-27T01:13:03.046Z,98890.88
2022-07-27T01:13:37.247Z,98892.46
2022-07-27T01:14:13.928Z,98896.98
2022-07-27T01:14:48.759Z,98896.62
2022-07-27T01:15:22.089Z,98894.86
2022-07-27T01:15:56.202Z,98898.81
2022-07-27T01:16:29.477Z,98895.45
2022-07-27T01:17:02.663Z,98899.24
2022-07-27T01:17:35.952Z,98896.04
2022-07-27T01:18:13.684Z,98896.20
2022-07-27T01:18:46.782Z,98890.92
2022-07-27T01:19:20.001Z,98892.65
2022-07-27T01:19:53.761Z,98896.77
2022-07-27T01:20:26.860Z,98893.15
2022-07-27T01:21:02.043Z,98897.58
2022-07-27T01:21:35.919Z,98894.23
2022-07-27T01:22:09.229Z,98893.00
2022-07-27T01:22:42.302Z,98894.23
2022-07-27T01:23:15.750Z,98893.85
2022-07-27T01:23:48.922Z,98896.91
2022-07-27T01:24:22.068Z,98891.83
2022-07-27T01:24:55.245Z,98888.64
2022-07-27T01:25:28.305Z,98896.30
2022-07-27T01:26:02.855Z,98896.93
2022-07-27T01:26:38.023Z,98894.96
2022-07-27T01:27:11.247Z,98894.41
2022-07-27T01:27:44.263Z,98893.45
2022-07-27T01:28:17.442Z,98895.23
2022-07-27T01:28:50.558Z,98897.36
2022-07-27T01:29:23.665Z,98896.03
2022-07-27T01:29:56.815Z,98894.42
2022-07-27T01:30:30.803Z,98896.66
2022-07-27T01:31:03.907Z,98898.79
2022-07-27T01:31:37.225Z,98896.29
2022-07-27T01:32:10.545Z,98897.99
2022-07-27T01:32:43.807Z,98890.86
2022-07-27T01:33:17.028Z,98897.57
2022-07-27T01:33:50.611Z,98895.23
2022-07-27T01:34:23.731Z,98895.81
2022-07-27T01:34:56.933Z,98892.61
2022-07-27T01:35:30.285Z,98897.52
2022-07-27T01:36:03.661Z,98895.04
2022-07-27T01:36:36.914Z,98894.23
2022-07-27T01:37:10.374Z,98894.71
2022-07-27T01:37:48.254Z,98891.88
2022-07-27T01:38:21.816Z,98891.92
2022-07-27T01:38:54.839Z,98893.24
2022-07-27T01:39:28.565Z,98894.16
2022-07-27T01:40:02.808Z,98890.99
2022-07-27T01:40:37.260Z,98891.64
2022-07-27T01:41:10.235Z,98890.50
2022-07-27T01:41:43.930Z,98891.16
2022-07-27T01:42:17.173Z,98888.40
2022-07-27T01:42:50.904Z,98890.73
2022-07-27T01:43:24.222Z,98887.30
2022-07-27T01:43:57.379Z,98888.95
2022-07-27T01:44:30.583Z,98885.11
2022-07-27T01:45:03.927Z,98888.73
2022-07-27T01:45:37.071Z,98884.11
2022-07-27T01:46:10.165Z,98888.69
2022-07-27T01:46:43.370Z,98886.23
2022-07-27T01:47:16.501Z,98889.33
2022-07-27T01:47:49.688Z,98885.33
2022-07-27T01:48:22.979Z,98889.05
2022-07-27T01:48:56.127Z,98887.32
2022-07-27T01:49:29.262Z,98887.27
2022-07-27T01:50:02.476Z,98887.75
2022-07-27T01:50:35.462Z,98889.48
2022-07-27T01:51:08.498Z,98886.73
2022-07-27T01:51:41.615Z,98885.75
2022-07-27T01:52:14.751Z,98883.82
2022-07-27T01:52:48.050Z,98886.06
2022-07-27T01:53:22.364Z,98884.77
2022-07-27T01:53:55.632Z,98886.94
2022-07-27T01:54:28.659Z,98883.79
2022-07-27T01:55:01.666Z,98885.02
2022-07-27T01:55:38.386Z,98885.49
2022-07-27T01:56:13.516Z,98881.71
2022-07-27T01:56:46.643Z,98886.08
2022-07-27T01:57:21.431Z,98885.88
2022-07-27T01:57:54.634Z,98885.11
2022-07-27T01:58:27.657Z,98882.89
2022-07-27T01:59:00.740Z,98884.66
2022-07-27T01:59:33.832Z,98884.28
2022-07-27T02:00:11.342Z,98884.23
2022-07-27T02:00:44.829Z,98884.02
2022-07-27T02:01:17.939Z,98886.05
2022-07-27T02:01:51.150Z,98886.23
2022-07-27T02:02:24.281Z,98885.13
2022-07-27T02:02:57.414Z,98885.34
2022-07-27T02:03:30.624Z,98884.23
2022-07-27T02:04:03.812Z,98882.16
2022-07-27T02:04:36.909Z,98882.84
2022-07-27T02:05:12.312Z,98882.25
2022-07-27T02:05:45.658Z,98884.39
2022-07-27T02:06:18.966Z,98885.19
2022-07-27T02:06:52.091Z,98881.73
2022-07-27T02:07:25.025Z,98882.86
2022-07-27T02:07:58.219Z,98884.31
2022-07-27T02:08:31.780Z,98881.35
2022-07-27T02:09:04.953Z,98882.57
2022-07-27T02:09:38.262Z,98882.67
2022-07-27T02:10:11.356Z,98880.67
2022-07-27T02:11:03.024Z,98881.11
2022-07-27T02:11:54.657Z,98877.88
2022-07-27T02:12:36.879Z,98877.36
2022-07-27T02:13:21.973Z,98876.19
2022-07-27T02:13:56.391Z,98874.22
2022-07-27T02:14:29.523Z,98874.32
2022-07-27T02:15:25.167Z,98872.78
2022-07-27T02:15:58.820Z,98876.28
2022-07-27T02:16:32.492Z,98877.05
2022-07-27T02:17:05.733Z,98874.98
2022-07-27T02:17:40.594Z,98876.47
2022-07-27T02:18:33.526Z,98874.75
2022-07-27T02:19:08.890Z,98876.75
2022-07-27T02:19:44.274Z,98879.71
2022-07-27T02:20:19.996Z,98880.20
2022-07-27T02:20:53.157Z,98883.55
2022-07-27T02:21:26.495Z,98881.36
2022-07-27T02:21:59.639Z,98880.02
2022-07-27T02:22:33.935Z,98881.63
2022-07-27T02:23:06.986Z,98882.95
2022-07-27T02:23:40.978Z,98879.06
2022-07-27T02:24:14.017Z,98885.17
2022-07-27T02:24:47.215Z,98888.00
2022-07-27T02:25:20.826Z,98883.75
2022-07-27T02:25:54.314Z,98887.33
2022-07-27T02:26:27.900Z,98887.35
2022-07-27T02:27:01.062Z,98889.01
2022-07-27T02:27:34.398Z,98885.98
2022-07-27T02:28:07.820Z,98887.52
2022-07-27T02:28:40.942Z,98883.27
2022-07-27T02:29:14.513Z,98887.34
2022-07-27T02:29:47.916Z,98883.86
2022-07-27T02:30:20.962Z,98884.41
2022-07-27T02:30:54.115Z,98884.42
2022-07-27T02:31:27.178Z,98884.48
2022-07-27T02:32:06.691Z,98885.23
2022-07-27T02:32:44.272Z,98887.46
2022-07-27T02:33:17.988Z,98885.67
2022-07-27T02:33:51.233Z,98887.01
2022-07-27T02:34:24.223Z,98887.33
2022-07-27T02:34:57.380Z,98889.94
2022-07-27T02:35:30.603Z,98888.14
2022-07-27T02:36:04.274Z,98890.81
2022-07-27T02:36:37.376Z,98891.78
2022-07-27T02:37:10.692Z,98890.66
2022-07-27T02:37:43.825Z,98895.11
2022-07-27T02:38:17.068Z,98895.48
2022-07-27T02:38:50.135Z,98894.33
2022-07-27T02:39:23.250Z,98892.41
2022-07-27T02:39:56.570Z,98894.48
2022-07-27T02:40:29.629Z,98895.19
2022-07-27T02:41:02.753Z,98894.33
2022-07-27T02:41:37.253Z,98892.10
2022-07-27T02:42:10.262Z,98891.56
2022-07-27T02:42:43.778Z,98897.11
2022-07-27T02:43:16.780Z,98891.52
2022-07-27T02:43:49.997Z,98890.08
2022-07-27T02:44:23.080Z,98893.44
2022-07-27T02:44:56.262Z,98893.39
2022-07-27T02:45:29.472Z,98895.66
2022-07-27T02:46:02.546Z,98896.77
2022-07-27T02:46:35.793Z,98893.85
2022-07-27T02:47:08.940Z,98897.04
2022-07-27T02:47:42.909Z,98897.83
2022-07-27T02:48:15.963Z,98897.08
2022-07-27T02:48:49.016Z,98897.71
2022-07-27T02:49:22.108Z,98899.05
2022-07-27T02:49:55.237Z,98895.86
2022-07-27T02:50:28.386Z,98898.87
2022-07-27T02:51:02.180Z,98899.17
2022-07-27T02:51:36.382Z,98895.41
2022-07-27T02:52:12.699Z,98900.21
2022-07-27T02:52:45.923Z,98898.23
2022-07-27T02:53:19.137Z,98902.14
2022-07-27T02:53:52.207Z,98899.09
2022-07-27T02:54:25.728Z,98903.02
2022-07-27T02:54:59.282Z,98906.36
2022-07-27T02:55:32.373Z,98903.17
2022-07-27T02:56:05.883Z,98900.17
2022-07-27T02:56:39.023Z,98903.04
2022-07-27T02:57:12.054Z,98904.23
2022-07-27T02:57:45.150Z,98904.01
2022-07-27T02:58:18.209Z,98902.63
2022-07-27T02:58:51.674Z,98901.83
2022-07-27T02:59:24.721Z,98901.89
2022-07-27T02:59:57.890Z,98902.46
2022-07-27T03:00:31.169Z,98902.70
2022-07-27T03:01:05.511Z,98902.98
2022-07-27T03:01:40.288Z,98903.23
2022-07-27T03:02:13.446Z,98902.11
2022-07-27T03:02:50.454Z,98902.98
2022-07-27T03:03:23.691Z,98903.48
2022-07-27T03:04:09.334Z,98900.25
2022-07-27T03:04:42.558Z,98905.52
2022-07-27T03:05:15.974Z,98903.02
2022-07-27T03:05:50.102Z,98906.42
2022-07-27T03:06:23.162Z,98905.27
2022-07-27T03:06:56.344Z,98905.92
2022-07-27T03:07:29.957Z,98907.60
2022-07-27T03:08:04.360Z,98909.64
2022-07-27T03:08:38.088Z,98910.66
2022-07-27T03:09:11.383Z,98913.17
2022-07-27T03:09:48.150Z,98916.59
2022-07-27T03:10:23.931Z,98919.36
2022-07-27T03:10:57.080Z,98915.05
2022-07-27T03:11:30.753Z,98919.20
2022-07-27T03:12:04.163Z,98918.03
2022-07-27T03:12:37.317Z,98917.60
2022-07-27T03:13:10.428Z,98920.20
2022-07-27T03:13:43.473Z,98925.78
2022-07-27T03:14:16.471Z,98921.16
2022-07-27T03:14:49.756Z,98923.91
2022-07-27T03:15:22.962Z,98923.44
2022-07-27T03:15:57.612Z,98922.83
2022-07-27T03:16:30.878Z,98921.36
2022-07-27T03:17:04.120Z,98924.23
2022-07-27T03:17:37.162Z,98921.36
2022-07-27T03:18:10.224Z,98924.06
2022-07-27T03:18:43.274Z,98923.64
2022-07-27T03:19:16.317Z,98924.02
2022-07-27T03:19:50.263Z,98921.89
2022-07-27T03:20:23.351Z,98921.89
2022-07-27T03:20:56.400Z,98925.08
2022-07-27T03:21:29.629Z,98922.21
2022-07-27T03:22:02.741Z,98921.16
2022-07-27T03:22:35.879Z,98920.63
2022-07-27T03:23:08.957Z,98925.48
2022-07-27T03:23:42.046Z,98918.88
2022-07-27T03:24:15.148Z,98918.31
2022-07-27T03:24:48.643Z,98918.95
2022-07-27T03:25:21.833Z,98921.61
2022-07-27T03:25:54.962Z,98922.02
2022-07-27T03:26:30.828Z,98923.19
2022-07-27T03:27:04.087Z,98926.27
2022-07-27T03:27:37.189Z,98927.08
2022-07-27T03:28:10.227Z,98928.34
2022-07-27T03:28:43.439Z,98929.11
2022-07-27T03:29:16.535Z,98928.00
2022-07-27T03:29:49.664Z,98930.73
2022-07-27T03:30:22.879Z,98930.64
2022-07-27T03:30:56.215Z,98932.25
2022-07-27T03:31:29.444Z,98933.84
2022-07-27T03:32:02.849Z,98932.19
2022-07-27T03:32:36.047Z,98930.64
2022-07-27T03:33:09.175Z,98935.44
2022-07-27T03:33:42.326Z,98931.65
2022-07-27T03:34:15.559Z,98930.16
2022-07-27T03:34:48.697Z,98932.92
2022-07-27T03:35:21.888Z,98931.95
2022-07-27T03:35:54.942Z,98930.08
2022-07-27T03:36:28.000Z,98929.54
2022-07-27T03:37:03.792Z,98930.08
2022-07-27T03:37:36.974Z,98930.79
2022-07-27T03:38:10.096Z,98933.15
2022-07-27T03:38:44.688Z,98930.21
2022-07-27T03:39:17.957Z,98926.70
2022-07-27T03:39:51.044Z,98928.30
2022-07-27T03:40:24.092Z,98927.29
2022-07-27T03:40:57.215Z,98928.46
2022-07-27T03:41:30.310Z,98926.33
2022-07-27T03:42:04.159Z,98925.15
2022-07-27T03:42:37.565Z,98926.90
2022-07-27T03:43:10.630Z,98923.86
2022-07-27T03:43:43.679Z,98921.14
2022-07-27T03:44:16.772Z,98925.19
2022-07-27T03:44:49.967Z,98921.31
2022-07-27T03:45:23.219Z,98919.45
2022-07-27T03:45:56.414Z,98922.34
2022-07-27T03:46:29.660Z,98921.42
2022-07-27T03:47:02.751Z,98921.98
2022-07-27T03:47:35.858Z,98919.86
2022-07-27T03:48:08.877Z,98918.40
2022-07-27T03:48:41.932Z,98918.52
2022-07-27T03:49:15.614Z,98916.71
2022-07-27T03:49:49.220Z,98917.91
2022-07-27T03:50:22.885Z,98916.54
2022-07-27T03:50:56.093Z,98913.61
2022-07-27T03:51:29.156Z,98913.52
2022-07-27T03:52:02.378Z,98913.52
2022-07-27T03:52:35.370Z,98914.52
2022-07-27T03:53:09.391Z,98911.39
2022-07-27T03:53:42.657Z,98916.34
2022-07-27T03:54:18.065Z,98918.80
2022-07-27T03:54:51.149Z,98915.35
2022-07-27T03:55:24.293Z,98918.70
2022-07-27T03:55:57.341Z,98917.00
2022-07-27T03:56:33.430Z,98919.36
2022-07-27T03:57:06.738Z,98919.90
2022-07-27T03:57:39.883Z,98918.30
2022-07-27T03:58:12.932Z,98923.04
2022-07-27T03:58:46.600Z,98924.91
2022-07-27T03:59:19.837Z,98925.33
2022-07-27T03:59:52.897Z,98924.05
2022-07-27T04:00:26.348Z,98926.89
2022-07-27T04:00:59.577Z,98926.63
2022-07-27T04:01:32.678Z,98925.74
2022-07-27T04:02:06.266Z,98925.48
2022-07-27T04:02:43.172Z,98924.80
2022-07-27T04:03:17.629Z,98927.73
2022-07-27T04:03:50.624Z,98925.99
2022-07-27T04:04:23.625Z,98927.53
2022-07-27T04:04:56.564Z,98928.06
2022-07-27T04:05:29.779Z,98929.73
2022-07-27T04:06:03.099Z,98926.73
2022-07-27T04:06:36.140Z,98928.08
2022-07-27T04:07:09.320Z,98926.06
2022-07-27T04:07:42.454Z,98926.32
2022-07-27T04:08:17.612Z,98926.14
2022-07-27T04:08:52.284Z,98930.13
2022-07-27T04:09:29.402Z,98928.36
2022-07-27T04:10:04.903Z,98929.87
2022-07-27T04:10:38.023Z,98928.95
2022-07-27T04:11:11.989Z,98931.86
2022-07-27T04:11:51.200Z,98928.73
2022-07-27T04:12:24.769Z,98933.22
2022-07-27T04:12:57.744Z,98929.26
2022-07-27T04:13:31.770Z,98928.85
2022-07-27T04:14:05.436Z,98929.73
2022-07-27T04:14:38.496Z,98930.06
2022-07-27T04:15:11.711Z,98931.44
2022-07-27T04:15:44.748Z,98932.77
2022-07-27T04:16:18.497Z,98932.71
2022-07-27T04:16:51.789Z,98933.20
2022-07-27T04:17:54.346Z,98932.93
2022-07-27T04:18:18.037Z,98932.06
2022-07-27T04:18:53.608Z,98931.15
2022-07-27T04:19:26.836Z,98935.33
2022-07-27T04:19:59.992Z,98931.58
2022-07-27T04:20:33.090Z,98935.15
2022-07-27T04:21:06.688Z,98931.26
2022-07-27T04:21:39.842Z,98936.65
2022-07-27T04:22:13.117Z,98934.47
2022-07-27T04:22:46.225Z,98935.11
2022-07-27T04:23:19.307Z,98935.48
2022-07-27T04:23:52.427Z,98935.69
2022-07-27T04:24:25.509Z,98936.70
2022-07-27T04:24:58.626Z,98937.92
2022-07-27T04:25:31.780Z,98935.08
2022-07-27T04:26:05.543Z,98936.63
2022-07-27T04:26:38.722Z,98940.33
2022-07-27T04:27:11.773Z,98937.35
2022-07-27T04:27:44.912Z,98934.73
2022-07-27T04:28:17.926Z,98934.49
2022-07-27T04:28:51.137Z,98939.33
2022-07-27T04:29:24.558Z,98935.55
2022-07-27T04:29:57.848Z,98936.65
2022-07-27T04:30:30.961Z,98946.04
2022-07-27T04:31:04.166Z,98946.73
2022-07-27T04:31:37.408Z,98943.84
2022-07-27T04:32:10.508Z,98948.54
2022-07-27T04:32:43.593Z,98948.17
2022-07-27T04:33:16.656Z,98948.96
2022-07-27T04:33:49.789Z,98949.23
2022-07-27T04:34:22.880Z,98948.81
2022-07-27T04:34:56.062Z,98948.42
2022-07-27T04:35:29.133Z,98953.20
2022-07-27T04:36:02.205Z,98952.29
2022-07-27T04:36:38.663Z,98953.60
2022-07-27T04:37:11.673Z,98952.95
2022-07-27T04:37:57.856Z,98953.92
2022-07-27T04:38:32.523Z,98956.86
2022-07-27T04:39:06.657Z,98956.59
2022-07-27T04:39:40.266Z,98953.52
2022-07-27T04:40:13.529Z,98955.91
2022-07-27T04:40:47.780Z,98953.89
2022-07-27T04:41:20.844Z,98956.28
2022-07-27T04:41:53.898Z,98957.10
2022-07-27T04:42:27.122Z,98956.01
2022-07-27T04:43:02.410Z,98954.63
2022-07-27T04:43:35.484Z,98957.98
2022-07-27T04:44:08.729Z,98960.60
2022-07-27T04:44:41.779Z,98957.95
2022-07-27T04:45:14.883Z,98958.20
2022-07-27T04:45:48.143Z,98955.01
2022-07-27T04:46:21.365Z,98956.48
2022-07-27T04:46:56.924Z,98951.58
2022-07-27T04:47:29.999Z,98952.45
2022-07-27T04:48:08.344Z,98952.55
2022-07-27T04:48:41.932Z,98951.27
2022-07-27T04:49:22.689Z,98954.38
2022-07-27T04:49:56.308Z,98951.29
2022-07-27T04:50:29.617Z,98950.64
2022-07-27T04:51:02.684Z,98951.76
2022-07-27T04:51:35.758Z,98953.90
2022-07-27T04:52:08.899Z,98952.86
2022-07-27T04:52:42.042Z,98953.54
2022-07-27T04:53:16.596Z,98955.30
2022-07-27T04:53:53.432Z,98956.00
2022-07-27T04:54:31.844Z,98958.25
2022-07-27T04:55:05.268Z,98958.50
2022-07-27T04:55:42.570Z,98954.86
2022-07-27T04:56:15.607Z,98957.50
2022-07-27T04:56:52.238Z,98962.28
2022-07-27T04:57:25.447Z,98959.33
2022-07-27T04:57:58.557Z,98954.52
2022-07-27T04:58:31.737Z,98958.64
2022-07-27T04:59:04.898Z,98960.38
2022-07-27T04:59:38.210Z,98959.37
2022-07-27T05:00:11.769Z,98958.22
2022-07-27T05:00:45.252Z,98958.77
2022-07-27T05:01:18.615Z,98956.33
2022-07-27T05:01:51.803Z,98961.51
2022-07-27T05:02:26.652Z,98961.85
2022-07-27T05:02:59.789Z,98963.92
2022-07-27T05:03:32.848Z,98962.83
2022-07-27T05:04:06.293Z,98963.42
2022-07-27T05:04:39.868Z,98965.86
2022-07-27T05:05:13.037Z,98970.60
2022-07-27T05:05:50.277Z,98968.14
2022-07-27T05:06:23.781Z,98967.10
2022-07-27T05:06:56.868Z,98967.54
2022-07-27T05:07:29.978Z,98969.58
2022-07-27T05:08:03.687Z,98964.95
2022-07-27T05:08:37.084Z,98969.31
2022-07-27T05:09:10.493Z,98964.47
2022-07-27T05:09:43.881Z,98966.95
2022-07-27T05:10:20.562Z,98968.27
2022-07-27T05:10:54.072Z,98967.70
2022-07-27T05:11:27.197Z,98966.53
2022-07-27T05:12:00.336Z,98969.27
2022-07-27T05:12:33.446Z,98970.62
2022-07-27T05:13:07.297Z,98967.14
2022-07-27T05:13:41.503Z,98967.71
2022-07-27T05:14:14.547Z,98970.24
2022-07-27T05:14:47.656Z,98970.13
2022-07-27T05:15:20.895Z,98970.76
2022-07-27T05:15:55.914Z,98969.33
2022-07-27T05:16:29.479Z,98974.38
2022-07-27T05:17:02.759Z,98975.39
2022-07-27T05:17:38.364Z,98975.77
2022-07-27T05:18:11.426Z,98976.30
2022-07-27T05:18:46.267Z,98978.56
2022-07-27T05:19:19.478Z,98976.83
2022-07-27T05:19:52.760Z,98981.84
2022-07-27T05:20:25.882Z,98982.54
2022-07-27T05:20:59.002Z,98980.30
2022-07-27T05:21:32.063Z,98981.58
2022-07-27T05:22:05.174Z,98980.73
2022-07-27T05:22:40.106Z,98981.37
2022-07-27T05:23:13.475Z,98980.11
2022-07-27T05:23:46.612Z,98984.77
2022-07-27T05:24:20.402Z,98978.05
2022-07-27T05:24:53.483Z,98979.97
2022-07-27T05:25:26.644Z,98977.20
2022-07-27T05:26:00.133Z,98978.59
2022-07-27T05:26:33.153Z,98977.84
2022-07-27T05:27:06.908Z,98979.23
2022-07-27T05:27:50.929Z,98979.70
2022-07-27T05:28:28.477Z,98981.02
2022-07-27T05:29:01.505Z,98985.64
2022-07-27T05:29:35.302Z,98984.95
2022-07-27T05:30:09.672Z,98984.65
2022-07-27T05:30:46.427Z,98988.73
2022-07-27T05:31:19.673Z,98985.50
2022-07-27T05:31:53.009Z,98984.87
2022-07-27T05:32:26.241Z,98984.94
2022-07-27T05:32:59.579Z,98984.50
2022-07-27T05:33:33.119Z,98986.65
2022-07-27T05:34:06.157Z,98984.23
2022-07-27T05:34:39.230Z,98988.38
2022-07-27T05:35:12.744Z,98988.94
2022-07-27T05:35:45.855Z,98984.17
2022-07-27T05:36:18.957Z,98987.40
2022-07-27T05:36:52.151Z,98987.63
2022-07-27T05:37:25.294Z,98991.42
2022-07-27T05:37:58.373Z,98989.73
2022-07-27T05:38:32.469Z,98986.55
2022-07-27T05:39:08.182Z,98987.98
2022-07-27T05:39:44.860Z,98988.57
2022-07-27T05:40:17.906Z,98986.80
2022-07-27T05:40:51.188Z,98987.34
2022-07-27T05:41:25.578Z,98986.96
2022-07-27T05:41:58.820Z,98983.93
2022-07-27T05:42:31.970Z,98986.92
2022-07-27T05:43:05.326Z,98988.00
2022-07-27T05:43:38.449Z,98984.83
2022-07-27T05:44:11.645Z,98983.19
2022-07-27T05:44:44.842Z,98983.02
2022-07-27T05:45:18.060Z,98981.48
2022-07-27T05:45:51.265Z,98980.85
2022-07-27T05:46:25.634Z,98979.31
2022-07-27T05:47:00.638Z,98983.50
2022-07-27T05:47:33.998Z,98979.21
2022-07-27T05:48:07.227Z,98978.99
2022-07-27T05:48:40.740Z,98978.63
2022-07-27T05:49:15.012Z,98982.75
2022-07-27T05:49:48.859Z,98983.77
2022-07-27T05:50:22.121Z,98985.30
2022-07-27T05:50:55.265Z,98987.06
2022-07-27T05:51:28.757Z,98986.09
2022-07-27T05:52:02.047Z,98986.72
2022-07-27T05:52:35.200Z,98988.11
2022-07-27T05:53:09.065Z,98986.27
2022-07-27T05:53:42.441Z,98984.84
2022-07-27T05:54:15.661Z,98988.33
2022-07-27T05:54:48.767Z,98990.19
2022-07-27T05:55:22.077Z,98989.93
2022-07-27T05:55:59.170Z,98986.60
2022-07-27T05:56:32.816Z,98989.34
2022-07-27T05:57:06.047Z,98989.03
2022-07-27T05:57:41.346Z,98986.47
2022-07-27T05:58:14.471Z,98987.47
2022-07-27T05:58:47.528Z,98985.91
2022-07-27T05:59:20.622Z,98987.14
2022-07-27T05:59:55.299Z,98986.57
2022-07-27T06:00:28.435Z,98985.39
2022-07-27T06:01:01.675Z,98983.90
2022-07-27T06:01:35.019Z,98987.02
2022-07-27T06:02:09.342Z,98982.21
2022-07-27T06:02:42.663Z,98985.66
2022-07-27T06:03:15.752Z,98984.27
2022-07-27T06:03:48.991Z,98987.38
2022-07-27T06:04:22.157Z,98987.52
2022-07-27T06:04:55.241Z,98987.56
2022-07-27T06:05:29.746Z,98990.88
2022-07-27T06:06:21.616Z,98990.02
2022-07-27T06:07:13.304Z,98993.91
2022-07-27T06:08:09.164Z,98994.38
2022-07-27T06:08:42.348Z,98995.34
2022-07-27T06:09:15.616Z,98993.64
2022-07-27T06:09:48.747Z,98996.03
2022-07-27T06:10:21.840Z,98995.03
2022-07-27T06:10:54.822Z,98989.91
2022-07-27T06:11:27.887Z,98994.17
2022-07-27T06:12:01.089Z,98995.00
2022-07-27T06:12:42.252Z,98995.08
2022-07-27T06:13:15.341Z,98992.35
2022-07-27T06:13:48.358Z,98993.20
2022-07-27T06:14:21.372Z,98994.08
2022-07-27T06:14:54.472Z,98994.73
2022-07-27T06:15:27.689Z,98994.20
2022-07-27T06:16:00.822Z,99000.88
2022-07-27T06:16:34.550Z,99002.95
2022-07-27T06:17:07.981Z,98999.39
2022-07-27T06:17:41.461Z,98997.06
2022-07-27T06:18:18.412Z,98995.91
2022-07-27T06:18:52.770Z,98999.10
2022-07-27T06:19:25.929Z,98996.83
2022-07-27T06:20:10.446Z,98995.45
2022-07-27T06:20:43.685Z,98998.55
2022-07-27T06:21:17.150Z,99000.20
2022-07-27T06:21:53.803Z,99001.27
2022-07-27T06:22:27.688Z,98999.27
2022-07-27T06:23:07.569Z,99004.73
2022-07-27T06:23:41.435Z,99004.16
2022-07-27T06:24:14.920Z,99004.62
2022-07-27T06:24:48.031Z,99004.41
2022-07-27T06:25:22.545Z,99007.02
2022-07-27T06:25:57.781Z,99006.48
2022-07-27T06:26:30.894Z,99003.70
2022-07-27T06:27:04.125Z,99003.34
2022-07-27T06:27:38.084Z,98997.58
2022-07-27T06:28:11.238Z,98999.14
2022-07-27T06:28:44.470Z,98994.77
2022-07-27T06:29:17.659Z,99001.23
2022-07-27T06:29:50.802Z,99006.30
2022-07-27T06:30:23.951Z,99008.27
2022-07-27T06:30:57.060Z,99007.59
2022-07-27T06:31:35.604Z,99006.27
2022-07-27T06:32:09.071Z,99002.13
2022-07-27T06:32:43.980Z,99002.30
2022-07-27T06:33:17.047Z,99003.33
2022-07-27T06:33:52.233Z,99002.81
2022-07-27T06:34:25.647Z,99005.89
2022-07-27T06:35:00.405Z,99003.88
2022-07-27T06:35:34.441Z,99003.31
2022-07-27T06:36:11.138Z,99001.25
2022-07-27T06:36:45.418Z,99002.20
2022-07-27T06:37:18.712Z,99003.04
2022-07-27T06:37:53.397Z,99001.27
2022-07-27T06:38:27.780Z,98999.39
2022-07-27T06:39:01.941Z,99001.52
2022-07-27T06:39:35.093Z,99002.79
2022-07-27T06:40:08.699Z,99003.34
2022-07-27T06:40:41.766Z,99001.47